Time;durP1;ratioP1;P1;durP2;ratioP2;P2;SDS_P1;SDS_P2;PMS_P1;PMS_P2;Temp;Humidity;BMP_temperature;BMP_pressure;BME280_temperature;BME280_humidity;BME280_pressure;Samples;Min_cycle;Max_cycle;Signal;HPM_P1;HPM_P2
2024/04/05 02:26:25;;;;;;;42.00;13.27;;;14.50;89.50;;;;;;5091038;28;20066;-79
2024/04/05 02:28:51;;;;;;;30.23;13.25;;;14.40;90.00;;;;;;5093343;28;20044;-80
2024/04/05 02:31:16;;;;;;;39.60;13.15;;;14.50;90.30;;;;;;5093254;28;20060;-80
2024/04/05 02:33:42;;;;;;;30.80;12.68;;;14.50;90.40;;;;;;5101867;28;20062;-79
2024/04/05 02:36:08;;;;;;;32.80;12.27;;;14.50;90.40;;;;;;5102427;28;20036;-79
2024/04/05 02:38:33;;;;;;;28.92;12.50;;;14.50;90.40;;;;;;5114649;28;20036;-76
2024/04/05 02:41:00;;;;;;;28.08;12.98;;;14.50;90.50;;;;;;5109575;28;20040;-80
2024/04/05 02:43:26;;;;;;;35.50;14.27;;;14.50;90.70;;;;;;5101729;28;20036;-79
2024/04/05 02:45:52;;;;;;;31.33;15.18;;;14.60;90.90;;;;;;5094945;28;20396;-79
2024/04/05 02:48:17;;;;;;;31.85;14.07;;;14.50;90.90;;;;;;5093102;28;20032;-79
2024/04/05 02:50:43;;;;;;;32.75;14.93;;;14.50;91.00;;;;;;5092409;28;20445;-79
2024/04/05 02:53:09;;;;;;;38.60;15.70;;;14.50;91.20;;;;;;5092654;28;20399;-80
2024/04/05 02:55:34;;;;;;;39.25;15.77;;;14.50;91.30;;;;;;5092341;28;20036;-80
2024/04/05 02:58:00;;;;;;;38.72;15.82;;;14.50;91.30;;;;;;5095262;28;20036;-78
2024/04/05 03:00:26;;;;;;;40.20;15.30;;;14.50;91.50;;;;;;5096308;28;20042;-68
2024/04/05 03:02:52;;;;;;;48.08;16.65;;;14.50;91.60;;;;;;5096608;28;20028;-79
2024/04/05 03:05:17;;;;;;;39.53;15.35;;;14.50;91.90;;;;;;5096381;28;20032;-79
2024/04/05 03:07:43;;;;;;;37.00;16.20;;;14.50;92.10;;;;;;5096315;28;20077;-78
2024/04/05 03:10:09;;;;;;;56.15;17.52;;;14.50;92.10;;;;;;5096278;28;20055;-79
2024/04/05 03:12:34;;;;;;;39.30;16.65;;;14.50;92.30;;;;;;5096479;28;20028;-80
2024/04/05 03:15:01;;;;;;;35.35;15.45;;;14.50;92.40;;;;;;5097063;28;20148;-80
2024/04/05 03:17:27;;;;;;;40.72;15.77;;;14.40;92.60;;;;;;5078942;28;20450;-80
2024/04/05 03:19:53;;;;;;;41.95;15.32;;;14.40;92.70;;;;;;5098020;28;20032;-79
2024/04/05 03:22:19;;;;;;;38.92;15.23;;;14.40;92.80;;;;;;5088707;28;20138;-77
2024/04/05 03:24:44;;;;;;;42.47;15.85;;;14.40;93.00;;;;;;5094224;28;20064;-80
2024/04/05 03:27:10;;;;;;;35.63;16.63;;;14.40;92.90;;;;;;5107968;28;20028;-79
2024/04/05 03:29:36;;;;;;;45.10;17.23;;;14.40;93.00;;;;;;5097054;28;20556;-79
2024/04/05 03:32:04;;;;;;;35.03;15.30;;;14.40;93.20;;;;;;5097074;28;20077;-79
2024/04/05 03:34:29;;;;;;;42.65;15.82;;;14.30;93.20;;;;;;5096784;28;20064;-80
2024/04/05 03:36:55;;;;;;;42.60;17.42;;;14.30;93.30;;;;;;5097103;28;20044;-80
2024/04/05 03:39:21;;;;;;;37.70;16.05;;;14.30;93.50;;;;;;5095979;28;20094;-79
2024/04/05 03:41:46;;;;;;;36.90;16.45;;;14.30;93.60;;;;;;5095749;28;20028;-79
2024/04/05 03:44:12;;;;;;;36.28;15.60;;;14.20;93.70;;;;;;5095821;28;20097;-79
2024/04/05 03:46:38;;;;;;;38.13;17.00;;;14.20;93.80;;;;;;5077225;28;20039;-78
2024/04/05 03:49:07;;;;;;;39.30;17.00;;;14.20;93.90;;;;;;5095310;28;20131;-80
2024/04/05 03:51:32;;;;;;;34.60;15.40;;;14.20;93.90;;;;;;5095345;28;20125;-80
2024/04/05 03:53:59;;;;;;;35.28;15.13;;;14.30;94.10;;;;;;5095375;28;20040;-79
2024/04/05 03:56:24;;;;;;;33.40;15.30;;;14.30;94.10;;;;;;5077070;28;20177;-78
2024/04/05 03:58:51;;;;;;;35.05;17.08;;;14.30;94.10;;;;;;5095488;28;20106;-78
2024/04/05 04:01:17;;;;;;;33.00;16.33;;;14.40;94.30;;;;;;5095444;28;20391;-80
2024/04/05 04:03:44;;;;;;;52.75;15.15;;;14.40;94.20;;;;;;5095296;28;20032;-79
2024/04/05 04:06:10;;;;;;;35.58;16.02;;;14.40;94.10;;;;;;5076902;28;20036;-80
2024/04/05 04:08:37;;;;;;;36.72;16.42;;;14.40;94.30;;;;;;5094024;28;20497;-80
2024/04/05 04:11:04;;;;;;;38.45;16.13;;;14.40;94.30;;;;;;5094969;28;20093;-79
2024/04/05 04:13:30;;;;;;;29.20;14.43;;;14.40;94.40;;;;;;5076680;28;20035;-80
2024/04/05 04:15:57;;;;;;;31.95;14.32;;;14.40;94.30;;;;;;5094899;28;20042;-80
2024/04/05 04:18:22;;;;;;;30.10;14.15;;;14.40;94.40;;;;;;5094724;28;20040;-78
2024/04/05 04:20:49;;;;;;;29.90;14.90;;;14.40;94.40;;;;;;5095001;28;20028;-78
2024/04/05 04:23:14;;;;;;;34.72;15.88;;;14.30;94.50;;;;;;5094967;28;20039;-79
2024/04/05 04:25:40;;;;;;;34.05;15.45;;;14.30;94.50;;;;;;5094539;28;20040;-79
2024/04/05 04:28:09;;;;;;;31.88;17.38;;;14.30;94.70;;;;;;5094966;28;20043;-80
2024/04/05 04:30:34;;;;;;;31.98;15.07;;;14.30;94.70;;;;;;5094472;28;20432;-80
2024/04/05 04:33:01;;;;;;;44.40;16.05;;;14.30;94.70;;;;;;5094785;28;20117;-80
2024/04/05 04:35:27;;;;;;;33.53;16.38;;;14.40;94.70;;;;;;5093664;22;20063;-80
2024/04/05 04:37:53;;;;;;;30.45;15.40;;;14.30;94.70;;;;;;5056412;28;20024;-79
2024/04/05 04:40:19;;;;;;;43.42;17.25;;;14.30;94.80;;;;;;5074573;28;20043;-80
2024/04/05 04:42:45;;;;;;;27.60;15.27;;;14.30;95.10;;;;;;5074734;28;20035;-79
2024/04/05 04:45:11;;;;;;;32.80;15.90;;;14.30;94.90;;;;;;5074253;28;20076;-80
2024/04/05 04:47:37;;;;;;;30.92;15.63;;;14.30;94.90;;;;;;5074601;28;20029;-80
2024/04/05 04:50:04;;;;;;;29.40;14.90;;;14.30;95.00;;;;;;5056412;28;20060;-79
2024/04/05 04:52:30;;;;;;;26.13;14.40;;;14.30;95.00;;;;;;5074360;28;20029;-78
2024/04/05 04:54:57;;;;;;;30.95;13.60;;;14.30;95.10;;;;;;5074529;28;20036;-81
2024/04/05 04:57:25;;;;;;;26.67;14.45;;;14.30;94.90;;;;;;5074130;28;20036;-79
2024/04/05 04:59:51;;;;;;;27.65;14.27;;;14.30;94.90;;;;;;5074196;28;20057;-78
2024/04/05 05:02:17;;;;;;;33.00;16.75;;;14.30;94.80;;;;;;5074243;28;20124;-81
2024/04/05 05:04:43;;;;;;;29.67;15.95;;;14.30;94.90;;;;;;5073862;28;20040;-80
2024/04/05 05:07:09;;;;;;;30.52;15.30;;;14.30;94.80;;;;;;5074527;28;20040;-79
2024/04/05 05:09:35;;;;;;;25.75;14.80;;;14.40;94.90;;;;;;5074315;28;20047;-80
2024/04/05 05:12:01;;;;;;;28.38;14.05;;;14.40;94.80;;;;;;5074292;28;20044;-79
2024/04/05 05:14:27;;;;;;;25.77;14.25;;;14.40;94.70;;;;;;5056650;28;20039;-81
2024/04/05 05:16:53;;;;;;;29.20;15.18;;;14.40;94.70;;;;;;5074425;28;20047;-79
2024/04/05 05:19:20;;;;;;;29.85;14.55;;;14.40;94.60;;;;;;5074265;28;20029;-80
2024/04/05 05:21:46;;;;;;;23.73;12.75;;;14.40;94.60;;;;;;5085318;28;20024;-82
2024/04/05 05:24:12;;;;;;;26.60;13.55;;;14.50;94.60;;;;;;5093085;28;20058;-79
2024/04/05 05:26:38;;;;;;;26.67;13.32;;;14.40;94.60;;;;;;5091544;28;20042;-82
2024/04/05 05:29:03;;;;;;;25.55;12.40;;;14.50;94.60;;;;;;5080658;28;20040;-79
2024/04/05 05:31:29;;;;;;;23.40;11.80;;;14.50;94.50;;;;;;5075737;28;20035;-76
2024/04/05 05:33:55;;;;;;;24.35;12.05;;;14.50;94.40;;;;;;5073948;28;20029;-72
2024/04/05 05:36:21;;;;;;;25.02;12.13;;;14.50;94.20;;;;;;5073324;28;20074;-71
2024/04/05 05:38:46;;;;;;;20.60;11.50;;;14.40;94.30;;;;;;5073029;28;20029;-72
2024/04/05 05:41:12;;;;;;;31.35;13.07;;;14.50;94.20;;;;;;5073044;28;20031;-71
2024/04/05 05:43:38;;;;;;;24.48;12.80;;;14.70;94.10;;;;;;5072730;28;20032;-73
2024/04/05 05:46:05;;;;;;;21.38;12.25;;;14.80;93.90;;;;;;5072692;28;20465;-70
2024/04/05 05:48:31;;;;;;;23.52;12.18;;;14.90;93.60;;;;;;5072442;28;20107;-70
2024/04/05 05:50:57;;;;;;;22.33;12.68;;;15.00;93.60;;;;;;5072257;28;20064;-73
2024/04/05 05:53:23;;;;;;;27.23;14.00;;;15.00;93.40;;;;;;5072636;28;20044;-72
2024/04/05 05:55:52;;;;;;;20.33;12.07;;;15.20;93.20;;;;;;5072680;28;20037;-72
2024/04/05 05:58:17;;;;;;;22.08;12.80;;;15.40;93.00;;;;;;5072693;28;20036;-71
2024/04/05 06:00:44;;;;;;;24.58;12.57;;;15.70;92.70;;;;;;5072268;28;20037;-71
2024/04/05 06:03:09;;;;;;;24.15;12.63;;;15.90;92.30;;;;;;5072242;28;20365;-72
2024/04/05 06:05:36;;;;;;;23.35;11.18;;;15.90;92.10;;;;;;5072256;28;20047;-72
2024/04/05 06:08:02;;;;;;;22.42;11.48;;;16.10;92.00;;;;;;5072583;28;20028;-73
2024/04/05 06:10:28;;;;;;;20.55;11.13;;;16.30;91.60;;;;;;5072043;28;20040;-73
2024/04/05 06:12:54;;;;;;;21.52;11.73;;;16.50;91.20;;;;;;5072472;28;20027;-73
2024/04/05 06:15:19;;;;;;;21.75;11.10;;;16.50;91.00;;;;;;5072201;28;20110;-72
2024/04/05 06:17:48;;;;;;;22.27;11.50;;;16.60;91.10;;;;;;5072193;28;20376;-72
2024/04/05 06:20:15;;;;;;;19.85;10.27;;;16.40;90.90;;;;;;5072425;28;20024;-72
2024/04/05 06:22:41;;;;;;;20.33;10.80;;;16.60;91.10;;;;;;5072176;28;20066;-73
2024/04/05 06:25:08;;;;;;;16.50;9.05;;;17.60;90.00;;;;;;5054291;28;20032;-73
2024/04/05 06:27:36;;;;;;;18.80;9.68;;;18.50;87.30;;;;;;5072114;28;20037;-72
2024/04/05 06:30:02;;;;;;;19.50;9.68;;;19.40;84.10;;;;;;5072275;28;20044;-74
2024/04/05 06:32:30;;;;;;;20.20;9.57;;;20.20;82.20;;;;;;5073768;28;20036;-73
2024/04/05 06:34:56;;;;;;;23.63;10.65;;;21.20;79.90;;;;;;5076129;28;20050;-73
2024/04/05 06:37:22;;;;;;;22.17;9.10;;;21.30;78.10;;;;;;5074799;28;20426;-73
2024/04/05 06:39:52;;;;;;;17.55;10.02;;;21.50;77.40;;;;;;5074841;28;20039;-71
2024/04/05 06:42:19;;;;;;;14.95;9.05;;;22.20;75.70;;;;;;5074527;28;20535;-73
2024/04/05 06:44:44;;;;;;;19.35;8.65;;;22.70;74.00;;;;;;5074836;28;20112;-74
2024/04/05 06:47:10;;;;;;;15.27;7.65;;;22.70;73.40;;;;;;5074932;28;20036;-71
2024/04/05 06:49:37;;;;;;;13.95;7.80;;;22.90;71.60;;;;;;5074087;28;20672;-74
2024/04/05 06:52:05;;;;;;;14.93;7.03;;;23.50;70.50;;;;;;5075410;28;20094;-71
2024/04/05 06:54:39;;;;;;;13.23;5.70;;;24.20;68.90;;;;;;5075073;28;20047;-74
2024/04/05 06:57:05;;;;;;;;;;;24.40;67.10;;;;;;5074666;28;20028;-73
2024/04/05 06:59:33;;;;;;;21.48;7.05;;;24.70;60.60;;;;;;5074502;28;20270;-72
2024/04/05 07:01:59;;;;;;;13.55;5.32;;;24.90;65.10;;;;;;5074440;28;20119;-73
2024/04/05 07:04:26;;;;;;;14.85;6.85;;;25.30;63.00;;;;;;5074708;28;20113;-75
2024/04/05 07:06:55;;;;;;;14.40;6.55;;;25.50;61.70;;;;;;5074811;28;20392;-77
2024/04/05 07:09:25;;;;;;;12.65;5.35;;;25.80;61.60;;;;;;5074750;28;20510;-76
2024/04/05 07:11:52;;;;;;;15.25;5.80;;;26.30;59.90;;;;;;5074527;28;20032;-76
2024/04/05 07:14:18;;;;;;;21.80;5.00;;;26.40;59.30;;;;;;5074781;28;20514;-75
2024/04/05 07:16:48;;;;;;;14.38;4.88;;;26.80;58.10;;;;;;5074715;28;20036;-76
2024/04/05 07:19:17;;;;;;;14.85;4.75;;;26.40;57.60;;;;;;5074877;28;20480;-75
2024/04/05 07:21:46;;;;;;;10.43;4.30;;;26.10;57.60;;;;;;5074192;28;20037;-76
2024/04/05 07:24:12;;;;;;;23.65;4.72;;;26.20;57.30;;;;;;5074193;28;20514;-77
2024/04/05 07:26:38;;;;;;;35.58;5.18;;;26.70;56.40;;;;;;5074029;28;20138;-76
2024/04/05 07:29:05;;;;;;;16.40;4.47;;;27.40;55.10;;;;;;5074026;28;20055;-78
2024/04/05 07:31:33;;;;;;;12.43;4.20;;;27.30;54.20;;;;;;5073965;28;20043;-78
2024/04/05 07:33:59;;;;;;;15.73;5.28;;;26.20;54.70;;;;;;5073845;28;20032;-75
2024/04/05 07:36:25;;;;;;;13.98;3.50;;;25.00;56.50;;;;;;5030925;28;1234788;-76
2024/04/05 07:38:51;;;;;;;11.27;3.90;;;24.00;57.50;;;;;;5074495;28;20040;-76
2024/04/05 07:41:17;;;;;;;47.42;6.65;;;23.10;58.70;;;;;;5075144;28;20032;-77
2024/04/05 07:43:43;;;;;;;15.48;4.13;;;22.70;60.00;;;;;;5074816;28;20028;-76
2024/04/05 07:46:09;;;;;;;23.45;4.63;;;22.30;60.80;;;;;;5074559;28;20106;-75
2024/04/05 07:48:34;;;;;;;30.27;4.93;;;21.90;61.10;;;;;;5074492;28;20055;-77
2024/04/05 07:51:00;;;;;;;19.80;4.72;;;21.70;62.10;;;;;;5074707;28;20165;-77
2024/04/05 07:53:26;;;;;;;15.10;4.97;;;21.60;62.50;;;;;;5074345;28;20036;-76
2024/04/05 07:55:52;;;;;;;20.40;5.43;;;21.50;63.20;;;;;;5074508;28;20033;-76
2024/04/05 07:58:18;;;;;;;11.82;4.72;;;21.40;63.40;;;;;;5074471;28;20039;-76
2024/04/05 08:00:45;;;;;;;13.63;4.80;;;21.10;63.90;;;;;;5074528;28;20162;-77
2024/04/05 08:03:10;;;;;;;12.50;4.88;;;20.70;64.70;;;;;;5074236;28;20177;-76
2024/04/05 08:05:36;;;;;;;14.23;4.63;;;20.60;65.90;;;;;;5074266;28;20127;-76
2024/04/05 08:08:02;;;;;;;13.93;5.63;;;20.40;66.00;;;;;;5074023;28;20033;-76
2024/04/05 08:10:30;;;;;;;11.65;4.88;;;20.30;66.30;;;;;;5073896;28;20055;-77
2024/04/05 08:12:59;;;;;;;15.52;5.63;;;20.30;67.10;;;;;;5074217;28;20029;-78
2024/04/05 08:15:26;;;;;;;14.23;5.57;;;20.30;67.50;;;;;;5074631;28;20468;-76
2024/04/05 08:17:52;;;;;;;15.18;5.82;;;20.30;67.60;;;;;;5074578;28;20056;-78
2024/04/05 08:20:20;;;;;;;13.65;5.63;;;20.30;67.90;;;;;;5074114;28;20079;-76
2024/04/05 08:22:46;;;;;;;17.75;5.68;;;20.30;68.10;;;;;;5074233;28;20057;-76
2024/04/05 08:25:13;;;;;;;16.65;5.93;;;20.40;68.20;;;;;;5074056;28;20480;-76
2024/04/05 08:27:38;;;;;;;15.30;5.75;;;20.50;68.20;;;;;;5077834;28;20052;-76
2024/04/05 08:30:05;;;;;;;14.30;5.70;;;20.50;68.10;;;;;;5073828;28;20045;-77
2024/04/05 08:32:31;;;;;;;10.98;5.85;;;20.50;67.90;;;;;;5073815;28;20060;-76
2024/04/05 08:34:56;;;;;;;14.52;5.22;;;20.40;68.10;;;;;;5073409;28;20512;-77
2024/04/05 08:37:22;;;;;;;13.10;5.68;;;20.40;68.20;;;;;;5073710;28;20024;-77
2024/04/05 08:39:48;;;;;;;22.65;6.60;;;20.40;68.20;;;;;;5073545;28;20601;-76
2024/04/05 08:42:16;;;;;;;15.23;4.80;;;20.40;68.30;;;;;;5073777;28;20033;-78
2024/04/05 08:44:47;;;;;;;13.35;4.60;;;20.50;68.10;;;;;;5073662;28;20040;-77
2024/04/05 08:47:13;;;;;;;15.70;4.80;;;20.50;67.90;;;;;;5073566;28;20028;-76
2024/04/05 08:49:40;;;;;;;12.73;4.68;;;20.50;67.70;;;;;;5073515;28;20080;-77
2024/04/05 08:52:06;;;;;;;10.38;4.72;;;20.50;67.80;;;;;;5073464;28;20031;-76
2024/04/05 08:54:33;;;;;;;14.70;4.72;;;20.60;67.90;;;;;;5073030;28;20040;-77
2024/04/05 08:57:00;;;;;;;15.32;5.28;;;20.60;68.00;;;;;;5072815;28;20036;-77
2024/04/05 08:59:32;;;;;;;13.90;4.70;;;20.70;68.40;;;;;;5073250;28;20055;-77
2024/04/05 09:02:02;;;;;;;16.38;5.45;;;20.80;68.50;;;;;;5073484;28;20036;-78
2024/04/05 09:04:28;;;;;;;9.45;4.05;;;20.80;68.40;;;;;;5073233;28;20035;-76
2024/04/05 09:06:55;;;;;;;8.27;3.72;;;20.60;67.80;;;;;;5072468;28;20107;-76
2024/04/05 09:09:33;;;;;;;11.45;4.20;;;20.40;68.10;;;;;;5073476;28;20029;-77
2024/04/05 09:12:04;;;;;;;9.48;3.67;;;20.20;68.00;;;;;;5073443;28;20094;-77
2024/04/05 09:14:30;;;;;;;13.25;4.00;;;20.30;68.40;;;;;;5072595;28;20084;-76
2024/04/05 09:16:57;;;;;;;17.30;4.05;;;20.40;68.50;;;;;;5072628;28;20032;-76
2024/04/05 09:19:23;;;;;;;14.23;3.92;;;20.50;68.30;;;;;;5072764;28;20025;-76
2024/04/05 09:21:49;;;;;;;10.00;3.90;;;20.60;68.50;;;;;;5072947;28;20121;-76
2024/04/05 09:24:18;;;;;;;30.95;5.13;;;20.70;68.10;;;;;;5072807;28;20025;-76
2024/04/05 09:26:45;;;;;;;34.88;5.28;;;20.80;67.80;;;;;;5072380;28;20036;-77
2024/04/05 09:29:14;;;;;;;22.58;4.07;;;20.90;67.70;;;;;;5072174;28;20036;-77
2024/04/05 09:31:40;;;;;;;11.50;4.18;;;21.10;66.90;;;;;;5072281;28;20044;-76
2024/04/05 09:34:08;;;;;;;11.18;4.25;;;21.20;66.20;;;;;;5072677;28;20029;-76
2024/04/05 09:36:37;;;;;;;10.07;3.33;;;21.30;65.90;;;;;;5072265;28;20049;-76
2024/04/05 09:39:07;;;;;;;8.50;3.45;;;21.40;65.30;;;;;;5072400;28;20035;-76
2024/04/05 09:41:34;;;;;;;11.65;3.63;;;21.50;64.70;;;;;;5071891;28;20090;-76
2024/04/05 09:44:05;;;;;;;13.60;3.97;;;21.40;64.90;;;;;;5072761;28;20035;-77
2024/04/05 09:46:31;;;;;;;11.18;3.90;;;21.50;65.10;;;;;;5072661;28;20464;-79
2024/04/05 09:48:58;;;;;;;14.50;4.57;;;21.50;65.00;;;;;;5072684;28;20039;-76
2024/04/05 09:51:26;;;;;;;20.27;4.80;;;21.50;65.20;;;;;;5072308;28;20130;-78
2024/04/05 09:53:54;;;;;;;27.70;5.30;;;21.50;65.30;;;;;;5072429;28;20024;-76
2024/04/05 09:56:24;;;;;;;13.18;4.18;;;21.60;64.90;;;;;;5072073;28;20051;-76
2024/04/05 09:58:52;;;;;;;9.75;3.90;;;21.60;64.90;;;;;;5072305;28;20108;-76
2024/04/05 10:01:18;;;;;;;19.80;4.22;;;21.50;64.90;;;;;;5072529;28;20451;-76
2024/04/05 10:03:47;;;;;;;13.10;4.55;;;21.50;65.00;;;;;;5072107;28;20056;-77
2024/04/05 10:06:15;;;;;;;13.48;5.50;;;21.50;65.40;;;;;;5072021;28;20401;-77
2024/04/05 10:08:41;;;;;;;13.50;5.25;;;21.50;65.60;;;;;;5071540;28;20091;-78
2024/04/05 10:11:14;;;;;;;14.02;5.03;;;21.60;65.70;;;;;;5072334;28;20380;-77
2024/04/05 10:13:42;;;;;;;10.25;4.22;;;21.60;65.60;;;;;;5072253;28;20036;-77
2024/04/05 10:16:09;;;;;;;13.55;4.82;;;21.50;64.90;;;;;;5072196;28;20033;-76
2024/04/05 10:18:39;;;;;;;13.23;3.80;;;21.40;65.10;;;;;;5072145;28;20392;-76
2024/04/05 10:21:09;;;;;;;10.57;4.10;;;21.40;64.90;;;;;;5072154;28;20484;-78
2024/04/05 10:23:39;;;;;;;10.43;3.85;;;21.40;64.50;;;;;;5072285;28;20044;-78
2024/04/05 10:26:15;;;;;;;9.18;3.30;;;21.40;64.30;;;;;;5072353;28;20062;-76
2024/04/05 10:28:42;;;;;;;9.48;2.75;;;21.60;64.10;;;;;;5072073;28;20468;-77
2024/04/05 10:31:10;;;;;;;10.88;3.47;;;21.60;63.40;;;;;;5071852;28;20044;-76
2024/04/05 10:33:38;;;;;;;9.55;3.03;;;21.60;63.20;;;;;;5072175;28;20033;-78
2024/04/05 10:36:05;;;;;;;10.07;3.38;;;21.70;63.20;;;;;;5072070;28;20427;-77
2024/04/05 10:38:33;;;;;;;12.65;3.95;;;21.70;63.00;;;;;;5072375;28;20040;-76
2024/04/05 10:41:04;;;;;;;12.10;3.83;;;21.80;62.60;;;;;;5070583;28;20147;-75
2024/04/05 10:43:30;;;;;;;13.02;3.38;;;21.90;62.60;;;;;;5071535;28;20040;-77
2024/04/05 10:45:57;;;;;;;11.10;4.47;;;22.00;62.80;;;;;;5071964;28;20318;-77
2024/04/05 10:48:24;;;;;;;9.90;3.13;;;22.10;62.10;;;;;;5070508;28;20176;-76
2024/04/05 10:50:51;;;;;;;8.85;3.13;;;22.30;61.20;;;;;;5071468;28;20049;-75
2024/04/05 10:53:18;;;;;;;9.38;3.42;;;22.40;60.80;;;;;;5071752;28;20074;-75
2024/04/05 10:55:47;;;;;;;7.03;2.97;;;22.50;60.20;;;;;;5072080;28;20032;-78
2024/04/05 10:58:13;;;;;;;9.65;3.30;;;22.60;60.30;;;;;;5071647;28;20176;-76
2024/04/05 11:00:40;;;;;;;9.75;3.00;;;22.60;60.20;;;;;;5071816;28;20456;-78
2024/04/05 11:03:10;;;;;;;9.82;3.35;;;22.70;60.60;;;;;;5071653;28;20437;-76
2024/04/05 11:05:37;;;;;;;10.07;3.20;;;22.80;60.10;;;;;;5071920;28;20036;-76
2024/04/05 11:08:04;;;;;;;10.60;3.15;;;23.00;60.00;;;;;;5071759;28;20032;-76
2024/04/05 11:10:36;;;;;;;12.70;3.10;;;23.00;59.50;;;;;;5071595;28;20102;-77
2024/04/05 11:13:20;;;;;;;11.63;3.42;;;23.10;59.60;;;;;;5053883;28;20035;-75
2024/04/05 11:15:46;;;;;;;;;;;23.20;59.70;;;;;;5072093;28;20485;-78
2024/04/05 11:18:13;;;;;;;8.85;2.75;;;23.20;58.30;;;;;;5072336;28;19970;-75
2024/04/05 11:20:39;;;;;;;8.02;2.85;;;23.10;59.30;;;;;;5075485;28;20528;-78
2024/04/05 11:23:21;;;;;;;10.73;3.00;;;23.20;59.70;;;;;;5075601;28;20064;-77
2024/04/05 11:25:54;;;;;;;7.45;2.45;;;23.20;59.40;;;;;;5075518;28;20108;-77
2024/04/05 11:28:23;;;;;;;7.93;2.90;;;23.10;59.40;;;;;;5075306;28;20036;-77
2024/04/05 11:30:52;;;;;;;9.70;2.95;;;23.00;59.10;;;;;;5075247;28;20040;-75
2024/04/05 11:33:18;;;;;;;8.07;2.65;;;23.00;58.80;;;;;;5075252;28;20111;-77
2024/04/05 11:35:45;;;;;;;7.40;2.58;;;23.00;58.90;;;;;;5075199;28;20091;-77
2024/04/05 11:38:12;;;;;;;6.70;2.28;;;22.90;59.10;;;;;;5075294;28;20392;-77
2024/04/05 11:40:38;;;;;;;7.32;2.50;;;22.90;59.30;;;;;;5075018;28;20032;-76
2024/04/05 11:43:08;;;;;;;7.57;2.53;;;23.00;59.10;;;;;;5077395;28;20036;-76
2024/04/05 11:45:35;;;;;;;7.32;2.53;;;23.10;59.10;;;;;;5077766;28;20036;-76
2024/04/05 11:48:01;;;;;;;6.90;2.22;;;23.10;58.80;;;;;;5075688;28;20095;-77
2024/04/05 11:50:28;;;;;;;5.32;2.20;;;23.20;58.80;;;;;;5075043;28;20063;-76
2024/04/05 11:52:53;;;;;;;7.50;2.58;;;23.30;58.10;;;;;;5074832;28;20156;-77
2024/04/05 11:55:20;;;;;;;9.75;2.60;;;23.30;57.70;;;;;;5074828;28;20090;-75
2024/04/05 11:57:45;;;;;;;9.85;2.88;;;23.30;58.10;;;;;;5074750;28;20020;-76
2024/04/05 12:00:13;;;;;;;9.82;2.78;;;23.30;58.10;;;;;;5074982;28;20118;-77
2024/04/05 12:02:39;;;;;;;10.52;3.00;;;23.40;58.60;;;;;;5074721;28;20102;-77
2024/04/05 12:05:07;;;;;;;10.05;3.13;;;23.50;58.70;;;;;;5075087;28;20029;-76
2024/04/05 12:07:33;;;;;;;7.97;2.60;;;23.50;58.30;;;;;;5075051;28;20048;-77
2024/04/05 12:09:59;;;;;;;6.85;2.20;;;23.60;58.30;;;;;;5074773;28;20127;-77
2024/04/05 12:12:26;;;;;;;35.30;5.03;;;23.60;58.30;;;;;;5075142;28;20116;-77
2024/04/05 12:14:51;;;;;;;13.43;3.00;;;23.60;58.10;;;;;;5074638;28;20170;-78
2024/04/05 12:17:17;;;;;;;8.75;3.40;;;23.60;58.00;;;;;;5074580;28;20539;-79
2024/04/05 12:19:47;;;;;;;12.45;3.00;;;23.70;58.20;;;;;;5074465;28;20036;-79
2024/04/05 12:22:13;;;;;;;7.97;3.10;;;23.70;58.20;;;;;;5074990;28;20059;-77
2024/04/05 12:24:39;;;;;;;10.88;2.55;;;23.70;58.50;;;;;;5075065;28;20056;-78
2024/04/05 12:27:04;;;;;;;12.93;3.38;;;23.80;58.70;;;;;;5074654;28;20029;-78
2024/04/05 12:29:31;;;;;;;10.82;3.25;;;23.90;58.80;;;;;;5074127;28;20414;-76
2024/04/05 12:31:56;;;;;;;14.63;3.80;;;24.00;59.10;;;;;;5074599;28;20040;-76
2024/04/05 12:34:23;;;;;;;14.07;3.53;;;24.10;59.50;;;;;;5075200;28;20459;-78
2024/04/05 12:36:50;;;;;;;10.63;3.20;;;24.10;59.80;;;;;;5074606;28;20044;-77
2024/04/05 12:39:26;;;;;;;9.32;2.78;;;24.10;60.20;;;;;;5074823;28;20044;-77
2024/04/05 12:41:52;;;;;;;11.23;3.22;;;24.10;60.40;;;;;;5074639;28;20394;-77
2024/04/05 12:44:18;;;;;;;13.48;3.42;;;24.20;60.40;;;;;;5074728;28;20043;-77
2024/04/05 12:46:50;;;;;;;14.63;3.65;;;24.30;60.60;;;;;;5072957;28;20036;-74
2024/04/05 12:49:16;;;;;;;10.85;3.58;;;24.40;60.50;;;;;;5074509;28;20414;-76
2024/04/05 12:51:42;;;;;;;11.15;3.40;;;24.50;60.60;;;;;;5074275;28;20120;-77
2024/04/05 12:54:07;;;;;;;11.70;3.40;;;24.40;60.70;;;;;;5074328;28;20370;-77
2024/04/05 12:56:33;;;;;;;9.85;3.17;;;24.40;61.10;;;;;;5073819;28;20044;-77
2024/04/05 12:58:59;;;;;;;12.43;3.42;;;24.40;61.40;;;;;;5074029;28;20468;-77
2024/04/05 13:01:25;;;;;;;11.82;3.70;;;24.30;61.90;;;;;;5073808;28;20469;-77
2024/04/05 13:03:51;;;;;;;8.75;2.75;;;24.40;62.10;;;;;;5073518;28;20032;-76
2024/04/05 13:06:18;;;;;;;12.77;3.47;;;24.40;61.70;;;;;;5073467;28;20407;-76
2024/04/05 13:08:45;;;;;;;16.20;3.70;;;24.60;61.40;;;;;;5073417;28;20028;-76
2024/04/05 13:11:13;;;;;;;9.50;3.17;;;24.70;61.40;;;;;;5073578;28;20048;-78
2024/04/05 13:13:40;;;;;;;10.82;3.35;;;24.70;61.10;;;;;;5073380;28;20045;-76
2024/04/05 13:16:08;;;;;;;12.75;3.47;;;24.70;61.00;;;;;;5072148;28;20395;-78
2024/04/05 13:18:37;;;;;;;11.10;3.17;;;24.60;60.50;;;;;;5073314;28;20102;-77
2024/04/05 13:21:14;;;;;;;10.60;3.10;;;24.40;60.40;;;;;;5073362;28;20036;-76
2024/04/05 13:23:49;;;;;;;10.95;3.17;;;24.40;60.40;;;;;;5073209;28;20094;-77
2024/04/05 13:26:18;;;;;;;8.48;2.70;;;24.40;60.60;;;;;;5055252;28;20087;-76
2024/04/05 13:28:45;;;;;;;8.20;2.78;;;24.30;60.00;;;;;;5073228;28;20574;-76
2024/04/05 13:31:11;;;;;;;6.47;2.42;;;24.30;60.00;;;;;;5072956;28;20177;-78
2024/04/05 13:33:38;;;;;;;11.63;2.90;;;24.40;59.90;;;;;;5073014;28;20060;-78
2024/04/05 13:36:11;;;;;;;8.48;2.53;;;24.40;59.60;;;;;;5073279;28;20052;-78
2024/04/05 13:38:38;;;;;;;8.38;2.90;;;24.40;59.30;;;;;;5073086;28;20039;-77
2024/04/05 13:41:05;;;;;;;8.98;2.25;;;24.40;59.10;;;;;;5073149;28;20082;-76
2024/04/05 13:43:32;;;;;;;13.02;2.92;;;24.40;58.90;;;;;;5073697;28;20033;-76
2024/04/05 13:46:15;;;;;;;9.52;2.72;;;24.40;58.70;;;;;;5073466;28;20055;-76
2024/04/05 13:48:45;;;;;;;9.30;2.58;;;24.50;57.90;;;;;;5073484;28;20062;-78
2024/04/05 13:51:11;;;;;;;10.32;2.30;;;24.50;58.30;;;;;;5072867;28;20118;-78
2024/04/05 13:53:38;;;;;;;8.82;2.53;;;24.50;58.00;;;;;;5072911;28;20027;-78
2024/04/05 13:56:05;;;;;;;7.53;2.45;;;24.50;57.90;;;;;;5071746;28;20033;-78
2024/04/05 13:58:32;;;;;;;11.80;2.70;;;24.50;57.50;;;;;;5073326;28;20033;-76
2024/04/05 14:00:58;;;;;;;8.90;2.63;;;24.40;57.40;;;;;;5054731;28;20083;-77
2024/04/05 14:03:24;;;;;;;8.18;2.58;;;24.40;57.30;;;;;;5072661;28;20029;-78
2024/04/05 14:05:51;;;;;;;6.72;2.40;;;24.40;57.10;;;;;;5072884;28;20028;-76
2024/04/05 14:08:18;;;;;;;11.25;2.53;;;24.40;57.30;;;;;;5072724;28;20025;-78
2024/04/05 14:10:44;;;;;;;9.90;2.40;;;24.40;57.10;;;;;;5072669;28;20399;-77
2024/04/05 14:13:10;;;;;;;6.22;1.98;;;24.40;56.50;;;;;;5073525;28;20033;-77
2024/04/05 14:15:36;;;;;;;9.07;2.05;;;24.40;56.30;;;;;;5072847;28;20044;-77
2024/04/05 14:18:02;;;;;;;7.78;2.05;;;24.40;56.00;;;;;;5080959;28;21024;-78
2024/04/05 14:20:28;;;;;;;8.15;1.80;;;24.30;55.50;;;;;;5086836;28;20032;-77
2024/04/05 14:22:54;;;;;;;6.13;1.60;;;24.30;55.20;;;;;;5074392;28;20569;-77
2024/04/05 14:25:20;;;;;;;5.97;1.58;;;24.20;55.10;;;;;;5073177;28;20072;-77
2024/04/05 14:27:45;;;;;;;6.32;1.63;;;24.20;55.10;;;;;;5072486;28;20024;-77
2024/04/05 14:30:11;;;;;;;7.65;1.80;;;24.10;55.30;;;;;;5072249;28;20044;-76
2024/04/05 14:32:37;;;;;;;6.10;1.77;;;24.10;55.10;;;;;;5073274;28;20048;-77
2024/04/05 14:35:04;;;;;;;11.60;3.28;;;24.10;55.20;;;;;;5073049;28;20431;-78
2024/04/05 14:37:31;;;;;;;8.75;2.50;;;24.00;55.10;;;;;;5072316;28;20044;-78
2024/04/05 14:39:57;;;;;;;6.13;1.70;;;24.00;55.60;;;;;;5072793;28;20445;-77
2024/04/05 14:42:23;;;;;;;8.65;2.00;;;23.90;55.70;;;;;;5072464;28;20483;-78
2024/04/05 14:44:53;;;;;;;12.30;1.98;;;24.00;55.90;;;;;;5072501;28;20045;-77
2024/04/05 14:47:22;;;;;;;6.78;1.92;;;24.00;55.40;;;;;;5072882;28;20111;-79
2024/04/05 14:49:48;;;;;;;6.18;1.80;;;24.10;55.40;;;;;;5072093;28;20072;-77
2024/04/05 14:52:14;;;;;;;12.40;1.70;;;24.20;55.10;;;;;;5071560;28;20050;-76
2024/04/05 14:54:40;;;;;;;6.93;1.98;;;24.20;54.70;;;;;;5075183;28;20039;-77
2024/04/05 14:57:09;;;;;;;6.43;1.63;;;24.20;54.50;;;;;;5075796;28;20033;-78
2024/04/05 14:59:35;;;;;;;5.70;1.70;;;24.10;53.90;;;;;;5075992;28;20029;-78